sensor_id;sensor_type;location;lat;lon;timestamp;pressure;altitude;pressure_sealevel;temperature;humidity
11987;BME280;6053;51.382;6.768;2023-04-24T00:00:42;99714.09;;;14.86;100.00
11987;BME280;6053;51.382;6.768;2023-04-24T00:03:12;99719.34;;;13.20;100.00
11987;BME280;6053;51.382;6.768;2023-04-24T00:05:42;99711.19;;;12.68;100.00
11987;BME280;6053;51.382;6.768;2023-04-24T00:08:11;99727.09;;;13.08;100.00
11987;BME280;6053;51.382;6.768;2023-04-24T00:10:40;99722.28;;;12.83;100.00
11987;BME280;6053;51.382;6.768;2023-04-24T00:13:09;99723.84;;;13.42;100.00
11987;BME280;6053;51.382;6.768;2023-04-24T00:15:37;99719.13;;;12.49;100.00
11987;BME280;6053;51.382;6.768;2023-04-24T00:18:06;99714.94;;;13.71;100.00
11987;BME280;6053;51.382;6.768;2023-04-24T00:20:35;99709.97;;;12.38;100.00
11987;BME280;6053;51.382;6.768;2023-04-24T00:23:05;99712.19;;;12.41;100.00
11987;BME280;6053;51.382;6.768;2023-04-24T00:25:33;99715.34;;;12.70;100.00
11987;BME280;6053;51.382;6.768;2023-04-24T00:28:02;99712.88;;;12.84;100.00
11987;BME280;6053;51.382;6.768;2023-04-24T00:30:31;99715.22;;;13.64;100.00
11987;BME280;6053;51.382;6.768;2023-04-24T00:32:59;99720.78;;;13.54;98.79
11987;BME280;6053;51.382;6.768;2023-04-24T00:35:28;99709.97;;;12.43;100.00
11987;BME280;6053;51.382;6.768;2023-04-24T00:37:56;99719.66;;;13.70;100.00
11987;BME280;6053;51.382;6.768;2023-04-24T00:40:27;99714.69;;;13.72;100.00
11987;BME280;6053;51.382;6.768;2023-04-24T00:42:56;99716.44;;;12.69;100.00
11987;BME280;6053;51.382;6.768;2023-04-24T00:45:25;99719.00;;;12.23;100.00
11987;BME280;6053;51.382;6.768;2023-04-24T00:47:54;99722.88;;;12.85;100.00
11987;BME280;6053;51.382;6.768;2023-04-24T00:50:23;99727.78;;;12.63;100.00
11987;BME280;6053;51.382;6.768;2023-04-24T00:52:52;99732.19;;;12.59;100.00
11987;BME280;6053;51.382;6.768;2023-04-24T00:55:21;99726.00;;;14.87;100.00
11987;BME280;6053;51.382;6.768;2023-04-24T00:57:51;99733.25;;;13.82;95.42
11987;BME280;6053;51.382;6.768;2023-04-24T01:00:20;99727.72;;;12.53;100.00
11987;BME280;6053;51.382;6.768;2023-04-24T01:02:49;99734.66;;;12.02;100.00
11987;BME280;6053;51.382;6.768;2023-04-24T01:05:19;99722.69;;;13.28;100.00
11987;BME280;6053;51.382;6.768;2023-04-24T01:07:48;99729.84;;;13.08;100.00
11987;BME280;6053;51.382;6.768;2023-04-24T01:10:16;99728.44;;;13.01;100.00
11987;BME280;6053;51.382;6.768;2023-04-24T01:12:47;99730.63;;;12.93;100.00
11987;BME280;6053;51.382;6.768;2023-04-24T01:15:17;99721.66;;;12.56;100.00
11987;BME280;6053;51.382;6.768;2023-04-24T01:17:46;99737.72;;;12.64;100.00
11987;BME280;6053;51.382;6.768;2023-04-24T01:20:15;99727.59;;;12.22;100.00
11987;BME280;6053;51.382;6.768;2023-04-24T01:22:45;99725.22;;;13.39;100.00
11987;BME280;6053;51.382;6.768;2023-04-24T01:25:14;99728.44;;;13.06;95.68
11987;BME280;6053;51.382;6.768;2023-04-24T01:27:42;99732.69;;;13.70;100.00
11987;BME280;6053;51.382;6.768;2023-04-24T01:30:13;99730.47;;;13.72;100.00
11987;BME280;6053;51.382;6.768;2023-04-24T01:32:42;99725.44;;;13.94;100.00
11987;BME280;6053;51.382;6.768;2023-04-24T01:35:12;99722.28;;;12.15;100.00
11987;BME280;6053;51.382;6.768;2023-04-24T01:37:40;99730.53;;;12.10;100.00
11987;BME280;6053;51.382;6.768;2023-04-24T01:40:11;99728.75;;;12.31;100.00
11987;BME280;6053;51.382;6.768;2023-04-24T01:42:41;99730.31;;;12.80;100.00
11987;BME280;6053;51.382;6.768;2023-04-24T01:45:11;99721.34;;;13.46;100.00
11987;BME280;6053;51.382;6.768;2023-04-24T01:47:41;99733.44;;;14.26;99.81
11987;BME280;6053;51.382;6.768;2023-04-24T01:50:10;99731.28;;;13.36;100.00
11987;BME280;6053;51.382;6.768;2023-04-24T01:52:39;99737.34;;;13.18;100.00
11987;BME280;6053;51.382;6.768;2023-04-24T01:55:09;99738.97;;;13.14;96.93
11987;BME280;6053;51.382;6.768;2023-04-24T01:57:38;99748.91;;;13.00;96.95
11987;BME280;6053;51.382;6.768;2023-04-24T02:00:08;99729.16;;;12.70;100.00
11987;BME280;6053;51.382;6.768;2023-04-24T02:02:40;99741.94;;;11.82;100.00
11987;BME280;6053;51.382;6.768;2023-04-24T02:05:11;99745.72;;;13.38;100.00
11987;BME280;6053;51.382;6.768;2023-04-24T02:07:40;99741.50;;;13.15;100.00
11987;BME280;6053;51.382;6.768;2023-04-24T02:10:11;99746.00;;;12.06;99.65
11987;BME280;6053;51.382;6.768;2023-04-24T02:12:39;99746.66;;;12.23;100.00
11987;BME280;6053;51.382;6.768;2023-04-24T02:15:09;99751.16;;;12.35;100.00
11987;BME280;6053;51.382;6.768;2023-04-24T02:17:38;99737.66;;;13.88;100.00
11987;BME280;6053;51.382;6.768;2023-04-24T02:20:07;99747.78;;;12.22;100.00
11987;BME280;6053;51.382;6.768;2023-04-24T02:22:36;99744.94;;;12.70;100.00
11987;BME280;6053;51.382;6.768;2023-04-24T02:25:05;99739.81;;;13.09;97.35
11987;BME280;6053;51.382;6.768;2023-04-24T02:27:36;99732.53;;;12.78;100.00
11987;BME280;6053;51.382;6.768;2023-04-24T02:30:06;99722.81;;;12.65;100.00
11987;BME280;6053;51.382;6.768;2023-04-24T02:32:35;99724.38;;;13.29;100.00
11987;BME280;6053;51.382;6.768;2023-04-24T02:35:04;99729.41;;;12.01;100.00
11987;BME280;6053;51.382;6.768;2023-04-24T02:37:33;99721.75;;;12.81;100.00
11987;BME280;6053;51.382;6.768;2023-04-24T02:40:01;99723.53;;;13.89;95.12
11987;BME280;6053;51.382;6.768;2023-04-24T02:42:32;99716.72;;;14.47;98.89
11987;BME280;6053;51.382;6.768;2023-04-24T02:45:02;99735.31;;;12.78;90.02
11987;BME280;6053;51.382;6.768;2023-04-24T02:47:32;99737.13;;;11.99;100.00
11987;BME280;6053;51.382;6.768;2023-04-24T02:50:01;99727.81;;;11.41;100.00
11987;BME280;6053;51.382;6.768;2023-04-24T02:52:30;99732.44;;;11.35;100.00
11987;BME280;6053;51.382;6.768;2023-04-24T02:54:58;99736.69;;;12.80;100.00
11987;BME280;6053;51.382;6.768;2023-04-24T02:57:27;99738.13;;;12.25;100.00
11987;BME280;6053;51.382;6.768;2023-04-24T02:59:55;99740.13;;;11.28;100.00
11987;BME280;6053;51.382;6.768;2023-04-24T03:02:25;99745.28;;;12.26;100.00
11987;BME280;6053;51.382;6.768;2023-04-24T03:04:54;99744.28;;;11.63;100.00
11987;BME280;6053;51.382;6.768;2023-04-24T03:07:24;99743.00;;;12.70;100.00
11987;BME280;6053;51.382;6.768;2023-04-24T03:09:52;99748.44;;;11.33;100.00
11987;BME280;6053;51.382;6.768;2023-04-24T03:12:21;99747.13;;;11.73;100.00
11987;BME280;6053;51.382;6.768;2023-04-24T03:14:51;99763.34;;;12.44;99.13
11987;BME280;6053;51.382;6.768;2023-04-24T03:17:19;99755.97;;;13.43;100.00
11987;BME280;6053;51.382;6.768;2023-04-24T03:19:49;99753.84;;;12.87;100.00
11987;BME280;6053;51.382;6.768;2023-04-24T03:22:18;99762.03;;;13.25;97.39
11987;BME280;6053;51.382;6.768;2023-04-24T03:24:47;99757.53;;;11.93;100.00
11987;BME280;6053;51.382;6.768;2023-04-24T03:27:15;99761.63;;;11.85;100.00
11987;BME280;6053;51.382;6.768;2023-04-24T03:29:44;99758.41;;;12.03;100.00
11987;BME280;6053;51.382;6.768;2023-04-24T03:32:12;99763.16;;;12.61;100.00
11987;BME280;6053;51.382;6.768;2023-04-24T03:34:41;99764.28;;;12.12;100.00
11987;BME280;6053;51.382;6.768;2023-04-24T03:37:11;99766.47;;;12.53;98.23
11987;BME280;6053;51.382;6.768;2023-04-24T03:39:40;99766.59;;;12.25;100.00
11987;BME280;6053;51.382;6.768;2023-04-24T03:42:09;99763.78;;;12.20;100.00
11987;BME280;6053;51.382;6.768;2023-04-24T03:44:37;99763.00;;;11.23;100.00
11987;BME280;6053;51.382;6.768;2023-04-24T03:47:06;99761.81;;;12.16;100.00
11987;BME280;6053;51.382;6.768;2023-04-24T03:49:35;99762.63;;;12.64;100.00
11987;BME280;6053;51.382;6.768;2023-04-24T03:52:03;99759.47;;;12.40;100.00
11987;BME280;6053;51.382;6.768;2023-04-24T03:54:33;99760.94;;;13.41;100.00
11987;BME280;6053;51.382;6.768;2023-04-24T03:57:02;99763.41;;;12.49;100.00
11987;BME280;6053;51.382;6.768;2023-04-24T03:59:31;99771.31;;;12.93;100.00
11987;BME280;6053;51.382;6.768;2023-04-24T04:02:00;99766.34;;;12.90;95.34
11987;BME280;6053;51.382;6.768;2023-04-24T04:04:29;99772.84;;;12.58;96.87
11987;BME280;6053;51.382;6.768;2023-04-24T04:06:58;99764.31;;;11.80;100.00
11987;BME280;6053;51.382;6.768;2023-04-24T04:09:28;99764.63;;;12.21;100.00
11987;BME280;6053;51.382;6.768;2023-04-24T04:11:58;99765.78;;;12.93;100.00
11987;BME280;6053;51.382;6.768;2023-04-24T04:14:27;99770.78;;;12.96;100.00
11987;BME280;6053;51.382;6.768;2023-04-24T04:16:56;99776.69;;;12.52;100.00
11987;BME280;6053;51.382;6.768;2023-04-24T04:19:25;99772.94;;;12.84;100.00
11987;BME280;6053;51.382;6.768;2023-04-24T04:21:53;99781.03;;;12.95;97.84
11987;BME280;6053;51.382;6.768;2023-04-24T04:24:23;99783.13;;;12.68;100.00
11987;BME280;6053;51.382;6.768;2023-04-24T04:26:53;99778.28;;;13.11;100.00
11987;BME280;6053;51.382;6.768;2023-04-24T04:29:26;99788.72;;;11.88;100.00
11987;BME280;6053;51.382;6.768;2023-04-24T04:31:55;99779.94;;;13.02;100.00
11987;BME280;6053;51.382;6.768;2023-04-24T04:34:24;99783.13;;;13.92;96.89
11987;BME280;6053;51.382;6.768;2023-04-24T04:36:52;99783.81;;;13.01;97.32
11987;BME280;6053;51.382;6.768;2023-04-24T04:39:21;99788.56;;;13.15;96.31
11987;BME280;6053;51.382;6.768;2023-04-24T04:41:49;99790.44;;;13.00;91.02
11987;BME280;6053;51.382;6.768;2023-04-24T04:44:18;99785.94;;;12.78;100.00
11987;BME280;6053;51.382;6.768;2023-04-24T04:46:48;99792.25;;;13.36;100.00
11987;BME280;6053;51.382;6.768;2023-04-24T04:49:17;99796.88;;;12.53;97.53
11987;BME280;6053;51.382;6.768;2023-04-24T04:51:45;99789.47;;;12.16;100.00
11987;BME280;6053;51.382;6.768;2023-04-24T04:54:14;99796.50;;;11.91;100.00
11987;BME280;6053;51.382;6.768;2023-04-24T04:56:43;99790.81;;;12.08;100.00
11987;BME280;6053;51.382;6.768;2023-04-24T04:59:11;99790.78;;;12.50;100.00
11987;BME280;6053;51.382;6.768;2023-04-24T05:01:40;99799.75;;;12.73;99.88
11987;BME280;6053;51.382;6.768;2023-04-24T05:04:10;99789.91;;;11.11;100.00
11987;BME280;6053;51.382;6.768;2023-04-24T05:06:39;99802.88;;;12.34;100.00
11987;BME280;6053;51.382;6.768;2023-04-24T05:09:08;99807.50;;;12.23;100.00
11987;BME280;6053;51.382;6.768;2023-04-24T05:11:36;99815.22;;;11.30;100.00
11987;BME280;6053;51.382;6.768;2023-04-24T05:14:05;99802.19;;;11.52;100.00
11987;BME280;6053;51.382;6.768;2023-04-24T05:16:34;99797.28;;;11.27;100.00
11987;BME280;6053;51.382;6.768;2023-04-24T05:19:04;99802.09;;;10.27;100.00
11987;BME280;6053;51.382;6.768;2023-04-24T05:21:34;99807.84;;;10.65;100.00
11987;BME280;6053;51.382;6.768;2023-04-24T05:24:03;99798.69;;;12.79;100.00
11987;BME280;6053;51.382;6.768;2023-04-24T05:26:32;99802.69;;;11.44;100.00
11987;BME280;6053;51.382;6.768;2023-04-24T05:29:00;99801.97;;;12.23;100.00
11987;BME280;6053;51.382;6.768;2023-04-24T05:31:29;99798.50;;;11.15;100.00
11987;BME280;6053;51.382;6.768;2023-04-24T05:33:58;99799.00;;;11.66;100.00
11987;BME280;6053;51.382;6.768;2023-04-24T05:36:26;99799.63;;;11.73;100.00
11987;BME280;6053;51.382;6.768;2023-04-24T05:38:56;99810.88;;;10.63;100.00
11987;BME280;6053;51.382;6.768;2023-04-24T05:41:25;99802.66;;;12.46;100.00
11987;BME280;6053;51.382;6.768;2023-04-24T05:43:53;99805.97;;;11.41;100.00
11987;BME280;6053;51.382;6.768;2023-04-24T05:46:22;99812.84;;;12.35;100.00
11987;BME280;6053;51.382;6.768;2023-04-24T05:48:51;99808.81;;;12.58;100.00
11987;BME280;6053;51.382;6.768;2023-04-24T05:51:19;99815.22;;;11.84;100.00
11987;BME280;6053;51.382;6.768;2023-04-24T05:53:48;99809.03;;;10.96;100.00
11987;BME280;6053;51.382;6.768;2023-04-24T05:56:18;99815.28;;;10.86;100.00
11987;BME280;6053;51.382;6.768;2023-04-24T05:58:47;99807.09;;;11.18;100.00
11987;BME280;6053;51.382;6.768;2023-04-24T06:01:16;99806.66;;;10.38;100.00
11987;BME280;6053;51.382;6.768;2023-04-24T06:03:45;99817.16;;;10.42;100.00
11987;BME280;6053;51.382;6.768;2023-04-24T06:06:14;99796.66;;;11.52;100.00
11987;BME280;6053;51.382;6.768;2023-04-24T06:08:43;99823.50;;;10.81;100.00
11987;BME280;6053;51.382;6.768;2023-04-24T06:11:12;99815.78;;;10.83;100.00
11987;BME280;6053;51.382;6.768;2023-04-24T06:13:43;99815.28;;;11.62;100.00
11987;BME280;6053;51.382;6.768;2023-04-24T06:16:11;99815.00;;;12.28;100.00
11987;BME280;6053;51.382;6.768;2023-04-24T06:18:40;99815.63;;;11.98;100.00
11987;BME280;6053;51.382;6.768;2023-04-24T06:21:08;99813.19;;;11.74;100.00
11987;BME280;6053;51.382;6.768;2023-04-24T06:23:37;99812.63;;;11.45;100.00
11987;BME280;6053;51.382;6.768;2023-04-24T06:26:06;99813.09;;;11.96;100.00
11987;BME280;6053;51.382;6.768;2023-04-24T06:28:34;99818.03;;;12.26;100.00
11987;BME280;6053;51.382;6.768;2023-04-24T06:31:04;99805.00;;;11.85;100.00
11987;BME280;6053;51.382;6.768;2023-04-24T06:33:33;99817.13;;;10.20;100.00
11987;BME280;6053;51.382;6.768;2023-04-24T06:36:02;99828.63;;;10.72;100.00
11987;BME280;6053;51.382;6.768;2023-04-24T06:38:31;99811.78;;;11.45;100.00
11987;BME280;6053;51.382;6.768;2023-04-24T06:40:59;99816.72;;;12.34;100.00
11987;BME280;6053;51.382;6.768;2023-04-24T06:43:28;99814.13;;;12.70;100.00
11987;BME280;6053;51.382;6.768;2023-04-24T06:45:57;99820.06;;;11.72;100.00
11987;BME280;6053;51.382;6.768;2023-04-24T06:48:27;99825.72;;;10.62;100.00
11987;BME280;6053;51.382;6.768;2023-04-24T06:50:56;99831.38;;;11.43;100.00
11987;BME280;6053;51.382;6.768;2023-04-24T06:53:24;99815.50;;;11.06;100.00
11987;BME280;6053;51.382;6.768;2023-04-24T06:58:27;99815.88;;;11.37;100.00
11987;BME280;6053;51.382;6.768;2023-04-24T07:00:56;99814.00;;;10.94;100.00
11987;BME280;6053;51.382;6.768;2023-04-24T07:03:24;99813.00;;;11.27;100.00
11987;BME280;6053;51.382;6.768;2023-04-24T07:05:55;99802.31;;;10.65;100.00
11987;BME280;6053;51.382;6.768;2023-04-24T07:08:25;99815.75;;;11.27;100.00
11987;BME280;6053;51.382;6.768;2023-04-24T07:10:53;99809.19;;;11.33;100.00
11987;BME280;6053;51.382;6.768;2023-04-24T07:13:23;99812.88;;;11.71;100.00
11987;BME280;6053;51.382;6.768;2023-04-24T07:15:53;99822.41;;;11.04;100.00
11987;BME280;6053;51.382;6.768;2023-04-24T07:18:22;99813.78;;;10.01;100.00
11987;BME280;6053;51.382;6.768;2023-04-24T07:20:51;99829.59;;;9.43;100.00
11987;BME280;6053;51.382;6.768;2023-04-24T07:23:21;99825.72;;;10.40;100.00
11987;BME280;6053;51.382;6.768;2023-04-24T07:25:49;99828.97;;;9.53;100.00
11987;BME280;6053;51.382;6.768;2023-04-24T07:28:18;99841.44;;;9.15;100.00
11987;BME280;6053;51.382;6.768;2023-04-24T07:30:46;99837.97;;;10.15;100.00
11987;BME280;6053;51.382;6.768;2023-04-24T07:33:15;99833.56;;;11.41;100.00
11987;BME280;6053;51.382;6.768;2023-04-24T07:35:44;99836.00;;;9.77;100.00
11987;BME280;6053;51.382;6.768;2023-04-24T07:38:12;99835.16;;;10.10;100.00
11987;BME280;6053;51.382;6.768;2023-04-24T07:40:42;99825.13;;;10.21;100.00
11987;BME280;6053;51.382;6.768;2023-04-24T07:43:14;99837.16;;;10.93;100.00
11987;BME280;6053;51.382;6.768;2023-04-24T07:45:42;99836.91;;;10.94;100.00
11987;BME280;6053;51.382;6.768;2023-04-24T07:48:11;99844.94;;;11.72;100.00
11987;BME280;6053;51.382;6.768;2023-04-24T07:50:42;99839.41;;;11.45;100.00
11987;BME280;6053;51.382;6.768;2023-04-24T07:53:10;99851.59;;;11.49;100.00
11987;BME280;6053;51.382;6.768;2023-04-24T07:55:39;99850.81;;;11.80;100.00
11987;BME280;6053;51.382;6.768;2023-04-24T07:58:09;99858.28;;;10.43;100.00
11987;BME280;6053;51.382;6.768;2023-04-24T08:00:38;99854.28;;;10.34;100.00
11987;BME280;6053;51.382;6.768;2023-04-24T08:03:06;99858.94;;;11.65;100.00
11987;BME280;6053;51.382;6.768;2023-04-24T08:05:35;99853.78;;;12.01;100.00
11987;BME280;6053;51.382;6.768;2023-04-24T08:08:07;99847.84;;;10.28;100.00
11987;BME280;6053;51.382;6.768;2023-04-24T08:10:35;99859.94;;;11.05;100.00
11987;BME280;6053;51.382;6.768;2023-04-24T08:13:04;99862.38;;;11.01;100.00
11987;BME280;6053;51.382;6.768;2023-04-24T08:15:34;99860.50;;;11.29;100.00
11987;BME280;6053;51.382;6.768;2023-04-24T08:18:03;99876.97;;;10.58;100.00
11987;BME280;6053;51.382;6.768;2023-04-24T08:20:32;99876.16;;;10.79;100.00
11987;BME280;6053;51.382;6.768;2023-04-24T08:23:00;99867.94;;;11.06;100.00
11987;BME280;6053;51.382;6.768;2023-04-24T08:25:29;99887.84;;;10.48;100.00
11987;BME280;6053;51.382;6.768;2023-04-24T08:27:57;99883.41;;;11.29;100.00
11987;BME280;6053;51.382;6.768;2023-04-24T08:30:26;99901.47;;;12.18;100.00
11987;BME280;6053;51.382;6.768;2023-04-24T08:32:56;99909.31;;;10.29;100.00
11987;BME280;6053;51.382;6.768;2023-04-24T08:35:25;99923.28;;;11.39;100.00
11987;BME280;6053;51.382;6.768;2023-04-24T08:37:53;99929.03;;;12.08;100.00
11987;BME280;6053;51.382;6.768;2023-04-24T08:40:26;99938.06;;;12.31;100.00
11987;BME280;6053;51.382;6.768;2023-04-24T08:42:56;99935.38;;;11.32;100.00
11987;BME280;6053;51.382;6.768;2023-04-24T08:45:25;99953.31;;;12.01;100.00
11987;BME280;6053;51.382;6.768;2023-04-24T08:47:55;99952.19;;;13.09;100.00
11987;BME280;6053;51.382;6.768;2023-04-24T08:50:26;99965.09;;;13.35;100.00
11987;BME280;6053;51.382;6.768;2023-04-24T08:52:54;99952.81;;;10.94;100.00
11987;BME280;6053;51.382;6.768;2023-04-24T08:55:24;99966.00;;;12.02;100.00
11987;BME280;6053;51.382;6.768;2023-04-24T08:57:53;99976.78;;;11.32;100.00
11987;BME280;6053;51.382;6.768;2023-04-24T09:00:23;99975.56;;;11.23;100.00
11987;BME280;6053;51.382;6.768;2023-04-24T09:02:53;99976.91;;;12.14;100.00
11987;BME280;6053;51.382;6.768;2023-04-24T09:05:24;99994.22;;;10.27;100.00
11987;BME280;6053;51.382;6.768;2023-04-24T09:07:55;100008.03;;;11.16;100.00
11987;BME280;6053;51.382;6.768;2023-04-24T09:10:25;100017.47;;;10.48;100.00
11987;BME280;6053;51.382;6.768;2023-04-24T09:12:56;100028.00;;;10.51;100.00
11987;BME280;6053;51.382;6.768;2023-04-24T09:15:25;100024.56;;;11.33;100.00
11987;BME280;6053;51.382;6.768;2023-04-24T09:17:54;100027.25;;;12.16;100.00
11987;BME280;6053;51.382;6.768;2023-04-24T09:20:24;100055.13;;;10.42;100.00
11987;BME280;6053;51.382;6.768;2023-04-24T09:22:54;100061.84;;;11.14;100.00
11987;BME280;6053;51.382;6.768;2023-04-24T09:25:25;100051.16;;;11.00;100.00
11987;BME280;6053;51.382;6.768;2023-04-24T09:28:01;100070.44;;;11.17;100.00
11987;BME280;6053;51.382;6.768;2023-04-24T09:30:30;100070.53;;;11.05;100.00
11987;BME280;6053;51.382;6.768;2023-04-24T09:33:12;100083.50;;;10.71;100.00
11987;BME280;6053;51.382;6.768;2023-04-24T09:35:42;100096.47;;;11.04;100.00
11987;BME280;6053;51.382;6.768;2023-04-24T09:38:16;100106.28;;;11.51;100.00
11987;BME280;6053;51.382;6.768;2023-04-24T09:40:45;100117.53;;;11.66;100.00
11987;BME280;6053;51.382;6.768;2023-04-24T09:43:13;100111.81;;;12.12;100.00
11987;BME280;6053;51.382;6.768;2023-04-24T09:45:42;100125.72;;;12.44;100.00
11987;BME280;6053;51.382;6.768;2023-04-24T09:48:11;100122.50;;;12.52;100.00
11987;BME280;6053;51.382;6.768;2023-04-24T09:50:39;100141.81;;;13.01;100.00
11987;BME280;6053;51.382;6.768;2023-04-24T09:53:15;100146.88;;;13.41;100.00
11987;BME280;6053;51.382;6.768;2023-04-24T09:55:46;100157.13;;;12.55;100.00
11987;BME280;6053;51.382;6.768;2023-04-24T09:58:16;100152.72;;;12.32;100.00
11987;BME280;6053;51.382;6.768;2023-04-24T10:00:46;100165.31;;;12.00;100.00
11987;BME280;6053;51.382;6.768;2023-04-24T10:03:15;100163.19;;;10.27;100.00
11987;BME280;6053;51.382;6.768;2023-04-24T10:05:46;100180.78;;;10.38;100.00
11987;BME280;6053;51.382;6.768;2023-04-24T10:08:16;100176.69;;;11.15;100.00
11987;BME280;6053;51.382;6.768;2023-04-24T10:10:46;100175.00;;;11.64;100.00
11987;BME280;6053;51.382;6.768;2023-04-24T10:13:15;100184.53;;;11.56;100.00
11987;BME280;6053;51.382;6.768;2023-04-24T10:15:44;100185.75;;;11.99;100.00
11987;BME280;6053;51.382;6.768;2023-04-24T10:18:14;100200.22;;;11.34;100.00
11987;BME280;6053;51.382;6.768;2023-04-24T10:20:44;100202.31;;;11.27;100.00
11987;BME280;6053;51.382;6.768;2023-04-24T10:23:13;100198.00;;;11.87;100.00
11987;BME280;6053;51.382;6.768;2023-04-24T10:25:44;100207.13;;;12.26;100.00
11987;BME280;6053;51.382;6.768;2023-04-24T10:28:14;100212.69;;;12.09;100.00
11987;BME280;6053;51.382;6.768;2023-04-24T10:30:43;100214.75;;;13.44;100.00
11987;BME280;6053;51.382;6.768;2023-04-24T10:33:14;100221.28;;;12.52;100.00
11987;BME280;6053;51.382;6.768;2023-04-24T10:35:45;100225.56;;;12.42;100.00
11987;BME280;6053;51.382;6.768;2023-04-24T10:38:21;100222.41;;;12.78;100.00
11987;BME280;6053;51.382;6.768;2023-04-24T10:41:06;100226.78;;;13.01;100.00
11987;BME280;6053;51.382;6.768;2023-04-24T10:43:35;100237.56;;;13.24;100.00
11987;BME280;6053;51.382;6.768;2023-04-24T10:46:05;100231.44;;;12.24;100.00
11987;BME280;6053;51.382;6.768;2023-04-24T10:48:35;100240.47;;;11.97;100.00
11987;BME280;6053;51.382;6.768;2023-04-24T10:51:04;100249.50;;;13.25;100.00
11987;BME280;6053;51.382;6.768;2023-04-24T10:53:35;100250.91;;;13.27;100.00
11987;BME280;6053;51.382;6.768;2023-04-24T10:56:06;100249.66;;;11.52;100.00
11987;BME280;6053;51.382;6.768;2023-04-24T10:58:38;100254.59;;;12.40;100.00
11987;BME280;6053;51.382;6.768;2023-04-24T11:01:07;100262.47;;;11.75;100.00
11987;BME280;6053;51.382;6.768;2023-04-24T11:03:36;100260.78;;;12.69;100.00
11987;BME280;6053;51.382;6.768;2023-04-24T11:06:09;100264.31;;;11.70;100.00
11987;BME280;6053;51.382;6.768;2023-04-24T11:08:39;100277.75;;;11.95;100.00
11987;BME280;6053;51.382;6.768;2023-04-24T11:11:13;100274.66;;;13.23;100.00
11987;BME280;6053;51.382;6.768;2023-04-24T11:14:09;100280.66;;;11.71;100.00
11987;BME280;6053;51.382;6.768;2023-04-24T11:16:45;100279.97;;;12.15;100.00
11987;BME280;6053;51.382;6.768;2023-04-24T11:19:22;100293.97;;;12.08;100.00
11987;BME280;6053;51.382;6.768;2023-04-24T11:21:58;100286.50;;;12.69;100.00
11987;BME280;6053;51.382;6.768;2023-04-24T11:24:31;100298.41;;;11.75;100.00
11987;BME280;6053;51.382;6.768;2023-04-24T11:27:07;100297.31;;;11.93;100.00
11987;BME280;6053;51.382;6.768;2023-04-24T11:29:43;100303.16;;;12.14;100.00
11987;BME280;6053;51.382;6.768;2023-04-24T11:32:25;100309.13;;;13.10;100.00
11987;BME280;6053;51.382;6.768;2023-04-24T11:34:55;100313.97;;;13.47;100.00
11987;BME280;6053;51.382;6.768;2023-04-24T11:37:26;100315.22;;;12.24;100.00
11987;BME280;6053;51.382;6.768;2023-04-24T11:39:56;100319.38;;;11.88;100.00
11987;BME280;6053;51.382;6.768;2023-04-24T11:42:28;100315.72;;;13.53;100.00
11987;BME280;6053;51.382;6.768;2023-04-24T11:45:01;100322.25;;;13.42;100.00
11987;BME280;6053;51.382;6.768;2023-04-24T11:47:31;100326.91;;;13.36;100.00
11987;BME280;6053;51.382;6.768;2023-04-24T11:50:01;100324.47;;;13.18;100.00
11987;BME280;6053;51.382;6.768;2023-04-24T11:52:31;100332.75;;;11.96;100.00
11987;BME280;6053;51.382;6.768;2023-04-24T11:55:00;100337.19;;;11.35;100.00
11987;BME280;6053;51.382;6.768;2023-04-24T11:57:30;100337.09;;;12.09;100.00
11987;BME280;6053;51.382;6.768;2023-04-24T12:00:02;100344.81;;;12.07;100.00
11987;BME280;6053;51.382;6.768;2023-04-24T12:02:32;100339.88;;;12.65;100.00
11987;BME280;6053;51.382;6.768;2023-04-24T12:05:03;100351.91;;;12.37;100.00
11987;BME280;6053;51.382;6.768;2023-04-24T12:07:41;100359.31;;;11.52;100.00
11987;BME280;6053;51.382;6.768;2023-04-24T12:10:10;100351.59;;;11.99;100.00
11987;BME280;6053;51.382;6.768;2023-04-24T12:12:40;100347.41;;;12.69;100.00
11987;BME280;6053;51.382;6.768;2023-04-24T12:15:10;100361.22;;;12.14;100.00
11987;BME280;6053;51.382;6.768;2023-04-24T12:17:42;100382.94;;;12.05;100.00
11987;BME280;6053;51.382;6.768;2023-04-24T12:20:12;100375.25;;;11.04;100.00
11987;BME280;6053;51.382;6.768;2023-04-24T12:22:45;100385.28;;;11.51;100.00
11987;BME280;6053;51.382;6.768;2023-04-24T12:25:14;100379.22;;;11.37;100.00
11987;BME280;6053;51.382;6.768;2023-04-24T12:27:45;100383.72;;;11.72;100.00
11987;BME280;6053;51.382;6.768;2023-04-24T12:30:15;100399.88;;;13.03;99.54
11987;BME280;6053;51.382;6.768;2023-04-24T12:32:46;100395.19;;;11.64;99.06
11987;BME280;6053;51.382;6.768;2023-04-24T12:35:19;100385.53;;;12.45;100.00
11987;BME280;6053;51.382;6.768;2023-04-24T12:37:49;100392.81;;;12.52;100.00
11987;BME280;6053;51.382;6.768;2023-04-24T12:40:19;100391.34;;;13.05;100.00
11987;BME280;6053;51.382;6.768;2023-04-24T12:42:50;100405.41;;;11.80;100.00
11987;BME280;6053;51.382;6.768;2023-04-24T12:45:20;100404.41;;;11.41;100.00
11987;BME280;6053;51.382;6.768;2023-04-24T12:47:52;100404.44;;;11.86;100.00
11987;BME280;6053;51.382;6.768;2023-04-24T12:50:21;100412.69;;;11.98;100.00
11987;BME280;6053;51.382;6.768;2023-04-24T12:52:50;100414.53;;;12.26;100.00
11987;BME280;6053;51.382;6.768;2023-04-24T12:55:18;100408.00;;;12.32;100.00
11987;BME280;6053;51.382;6.768;2023-04-24T12:57:50;100423.09;;;12.08;100.00
11987;BME280;6053;51.382;6.768;2023-04-24T13:00:21;100412.91;;;11.51;100.00
11987;BME280;6053;51.382;6.768;2023-04-24T13:02:50;100419.16;;;11.75;100.00
11987;BME280;6053;51.382;6.768;2023-04-24T13:05:19;100419.44;;;11.33;100.00
11987;BME280;6053;51.382;6.768;2023-04-24T13:07:51;100437.78;;;11.39;100.00
11987;BME280;6053;51.382;6.768;2023-04-24T13:10:21;100433.19;;;11.73;100.00
11987;BME280;6053;51.382;6.768;2023-04-24T13:12:52;100439.41;;;11.23;100.00